Time;durP1;ratioP1;P1;durP2;ratioP2;P2;SDS_P1;SDS_P2;PMS_P1;PMS_P2;Temp;Humidity;BMP_temperature;BMP_pressure;BME280_temperature;BME280_humidity;BME280_pressure;Samples;Min_cycle;Max_cycle;Signal;HPM_P1;HPM_P2
2023/06/28 00:00:13;;;;;;;9.25;2.40;;;14.00;99.90;;;;;;4983184;28;20371;-65
2023/06/28 00:02:39;;;;;;;8.97;2.80;;;14.00;99.90;;;;;;5016799;28;20112;-66
2023/06/28 00:05:07;;;;;;;9.90;3.15;;;14.00;99.90;;;;;;5016580;28;20281;-66
2023/06/28 00:07:33;;;;;;;12.25;3.33;;;14.00;99.90;;;;;;5016647;28;20478;-65
2023/06/28 00:09:59;;;;;;;10.87;3.27;;;14.00;99.90;;;;;;5016388;28;20104;-65
2023/06/28 00:12:26;;;;;;;10.18;2.80;;;14.00;99.90;;;;;;4998948;28;20042;-66
2023/06/28 00:14:54;;;;;;;9.90;3.20;;;14.00;99.90;;;;;;4999074;28;20050;-65
2023/06/28 00:17:27;;;;;;;7.80;3.00;;;14.00;99.90;;;;;;4998841;28;20046;-67
2023/06/28 00:19:56;;;;;;;10.57;3.30;;;14.00;99.90;;;;;;5017116;28;20119;-66
2023/06/28 00:22:29;;;;;;;10.60;3.03;;;13.90;99.90;;;;;;4998731;28;20046;-66
2023/06/28 00:25:04;;;;;;;9.27;3.10;;;13.90;99.90;;;;;;4999174;28;20050;-66
2023/06/28 00:27:30;;;;;;;12.90;3.38;;;13.90;99.90;;;;;;4998685;28;20046;-66
2023/06/28 00:29:56;;;;;;;9.13;3.33;;;13.90;99.90;;;;;;4983324;28;20175;-67
2023/06/28 00:32:24;;;;;;;8.45;3.03;;;13.90;99.90;;;;;;5016080;28;20414;-66
2023/06/28 00:34:49;;;;;;;12.32;3.65;;;13.80;99.90;;;;;;5016881;28;20050;-67
2023/06/28 00:37:15;;;;;;;9.02;3.17;;;13.80;99.90;;;;;;5016028;28;20493;-67
2023/06/28 00:39:41;;;;;;;10.15;3.10;;;13.80;99.90;;;;;;4982447;28;20054;-66
2023/06/28 00:42:07;;;;;;;11.68;3.33;;;13.80;99.90;;;;;;4998477;28;20073;-66
2023/06/28 00:44:33;;;;;;;8.30;2.67;;;13.80;99.90;;;;;;4998713;28;20096;-66
2023/06/28 00:47:00;;;;;;;8.63;2.92;;;13.80;99.90;;;;;;4982183;28;20113;-66
2023/06/28 00:49:29;;;;;;;9.82;3.10;;;13.90;99.90;;;;;;5015168;28;20052;-66
2023/06/28 00:51:55;;;;;;;11.15;2.88;;;13.90;99.90;;;;;;5015647;28;20041;-67
2023/06/28 00:54:25;;;;;;;9.20;3.28;;;13.90;99.90;;;;;;5015773;28;20049;-65
2023/06/28 00:56:51;;;;;;;9.60;2.80;;;13.90;99.90;;;;;;4998050;28;20054;-66
2023/06/28 00:59:17;;;;;;;10.75;3.15;;;13.90;99.90;;;;;;4998513;28;20145;-66
2023/06/28 01:01:43;;;;;;;6.23;3.20;;;13.90;99.90;;;;;;5015506;28;20084;-66
2023/06/28 01:04:09;;;;;;;8.77;2.90;;;13.90;99.90;;;;;;4998197;28;20474;-67
2023/06/28 01:06:37;;;;;;;9.77;3.92;;;13.90;99.90;;;;;;5016295;28;20088;-67
2023/06/28 01:09:07;;;;;;;12.50;3.70;;;13.90;99.90;;;;;;5015686;28;20046;-67
2023/06/28 01:11:34;;;;;;;11.05;3.50;;;13.90;99.90;;;;;;5015404;28;20129;-66
2023/06/28 01:14:00;;;;;;;9.75;3.95;;;13.90;99.90;;;;;;5015208;28;20081;-67
2023/06/28 01:16:26;;;;;;;12.27;3.80;;;13.90;99.90;;;;;;4997881;28;20088;-66
2023/06/28 01:18:52;;;;;;;12.10;4.13;;;13.80;99.90;;;;;;4981912;28;20107;-66
2023/06/28 01:21:20;;;;;;;11.43;4.13;;;13.80;99.90;;;;;;5015860;28;20292;-66
2023/06/28 01:23:46;;;;;;;8.63;3.80;;;13.80;99.90;;;;;;4997793;28;20299;-65
2023/06/28 01:26:12;;;;;;;12.03;4.20;;;13.80;99.90;;;;;;5015006;28;20052;-66
2023/06/28 01:28:38;;;;;;;9.75;3.90;;;13.80;99.90;;;;;;5015817;28;20046;-65
2023/06/28 01:31:06;;;;;;;12.13;4.18;;;13.80;99.90;;;;;;5014980;28;20080;-65
2023/06/28 01:33:31;;;;;;;9.73;3.55;;;13.80;99.90;;;;;;4997709;28;20402;-65
2023/06/28 01:35:57;;;;;;;11.35;4.22;;;13.80;99.90;;;;;;5015424;28;20046;-65
2023/06/28 01:38:24;;;;;;;17.33;4.22;;;13.80;99.90;;;;;;4997279;28;20038;-65
2023/06/28 01:40:52;;;;;;;11.57;4.45;;;13.70;99.90;;;;;;5015543;28;20433;-65
2023/06/28 01:43:19;;;;;;;8.82;4.38;;;13.70;99.90;;;;;;5014603;28;20124;-66
2023/06/28 01:45:44;;;;;;;17.02;4.65;;;13.70;99.90;;;;;;5014780;28;20125;-65
2023/06/28 01:48:11;;;;;;;17.20;4.30;;;13.70;99.90;;;;;;4997185;28;20459;-65
2023/06/28 01:50:37;;;;;;;9.40;4.27;;;13.70;99.90;;;;;;4997425;28;20141;-64
2023/06/28 01:53:04;;;;;;;10.18;4.18;;;13.70;99.90;;;;;;5014545;28;20136;-67
2023/06/28 01:55:29;;;;;;;;;;;13.70;99.90;;;;;;5015061;28;20050;-66
2023/06/28 01:57:56;;;;;;;12.10;3.80;;;13.70;99.90;;;;;;5014623;28;20255;-66
2023/06/28 02:00:22;;;;;;;9.55;4.30;;;13.80;99.90;;;;;;5013491;28;20088;-66
2023/06/28 02:02:48;;;;;;;12.77;4.15;;;13.80;99.90;;;;;;5014350;28;20058;-66
2023/06/28 02:05:14;;;;;;;8.63;4.43;;;13.80;99.90;;;;;;5014361;28;20402;-65
2023/06/28 02:07:39;;;;;;;10.45;4.50;;;13.80;99.90;;;;;;4997080;28;20049;-65
2023/06/28 02:10:06;;;;;;;10.90;4.45;;;13.80;99.90;;;;;;4996825;28;20490;-66
2023/06/28 02:12:32;;;;;;;9.75;4.05;;;13.80;99.90;;;;;;5014793;28;20124;-65
2023/06/28 02:14:58;;;;;;;9.50;4.10;;;13.80;99.90;;;;;;4997070;28;20073;-65
2023/06/28 02:17:23;;;;;;;11.95;4.20;;;13.80;99.90;;;;;;5013812;28;20568;-65
2023/06/28 02:19:49;;;;;;;10.95;4.25;;;13.80;99.90;;;;;;5014165;28;20053;-65
2023/06/28 02:22:16;;;;;;;11.35;4.57;;;13.90;99.90;;;;;;5014882;28;20133;-65
2023/06/28 02:24:43;;;;;;;12.27;4.93;;;13.90;99.90;;;;;;5014057;28;20050;-65
2023/06/28 02:27:09;;;;;;;9.98;4.20;;;13.90;99.90;;;;;;5014045;28;20042;-66
2023/06/28 02:29:35;;;;;;;10.65;4.60;;;13.80;99.90;;;;;;5014404;28;20053;-65
2023/06/28 02:32:02;;;;;;;15.75;5.05;;;13.80;99.90;;;;;;4996474;28;20064;-65
2023/06/28 02:34:28;;;;;;;9.98;4.85;;;13.70;99.90;;;;;;5014371;28;20132;-65
2023/06/28 02:36:53;;;;;;;12.98;4.82;;;13.70;99.90;;;;;;4996660;28;20453;-65
2023/06/28 02:39:19;;;;;;;11.10;4.35;;;13.80;99.90;;;;;;5013760;28;20547;-65
2023/06/28 02:41:45;;;;;;;11.18;4.70;;;13.70;99.90;;;;;;5013920;28;20049;-66
2023/06/28 02:44:11;;;;;;;9.68;4.78;;;13.80;99.90;;;;;;4996359;28;20458;-66
2023/06/28 02:46:36;;;;;;;10.80;5.45;;;13.80;99.90;;;;;;4996813;28;20057;-66
2023/06/28 02:49:02;;;;;;;13.32;5.03;;;13.80;99.90;;;;;;4996353;28;20474;-66
2023/06/28 02:51:28;;;;;;;11.48;5.00;;;13.80;99.90;;;;;;5013591;28;20046;-66
2023/06/28 02:53:54;;;;;;;12.65;5.15;;;13.80;99.90;;;;;;5013394;28;20458;-66
2023/06/28 02:56:19;;;;;;;11.27;4.93;;;13.90;99.90;;;;;;4996088;28;20049;-66
2023/06/28 02:58:45;;;;;;;12.23;4.93;;;13.90;99.90;;;;;;5013682;28;20509;-66
2023/06/28 03:01:11;;;;;;;11.82;4.70;;;14.00;99.90;;;;;;4996204;28;20200;-68
2023/06/28 03:03:37;;;;;;;10.75;4.78;;;14.00;99.90;;;;;;5013350;28;20080;-66
2023/06/28 03:06:03;;;;;;;12.83;5.40;;;14.00;99.90;;;;;;5013638;28;20050;-66
2023/06/28 03:08:29;;;;;;;11.70;4.90;;;14.10;99.90;;;;;;5013630;28;20045;-66
2023/06/28 03:10:55;;;;;;;11.43;5.10;;;14.10;99.90;;;;;;4996158;28;20287;-66
2023/06/28 03:13:21;;;;;;;13.45;4.70;;;14.20;99.90;;;;;;5016965;28;20061;-66
2023/06/28 03:15:47;;;;;;;12.60;4.93;;;14.20;99.90;;;;;;5000339;28;20398;-66
2023/06/28 03:18:13;;;;;;;11.93;4.95;;;14.20;99.90;;;;;;5017499;28;20050;-68
2023/06/28 03:20:39;;;;;;;9.63;4.82;;;14.30;99.90;;;;;;5000204;28;20057;-66
2023/06/28 03:23:04;;;;;;;11.32;5.45;;;14.30;99.90;;;;;;5000169;28;20053;-66
2023/06/28 03:25:30;;;;;;;14.52;4.90;;;14.30;99.90;;;;;;5017845;28;20096;-66
2023/06/28 03:27:56;;;;;;;8.57;4.63;;;14.30;99.90;;;;;;5017442;28;20050;-66
2023/06/28 03:30:22;;;;;;;9.95;4.85;;;14.30;99.90;;;;;;4967619;28;20048;-66
2023/06/28 03:32:48;;;;;;;12.10;4.97;;;14.30;99.90;;;;;;5017225;28;20038;-66
2023/06/28 03:35:14;;;;;;;9.98;4.57;;;14.40;99.90;;;;;;4999893;28;20057;-66
2023/06/28 03:37:51;;;;;;;10.48;4.72;;;14.40;99.90;;;;;;4999975;28;20056;-66
2023/06/28 03:40:16;;;;;;;10.32;4.68;;;14.40;99.90;;;;;;5017849;28;20111;-66
2023/06/28 03:42:42;;;;;;;12.38;4.68;;;14.40;99.90;;;;;;4999629;28;20042;-65
2023/06/28 03:45:08;;;;;;;10.73;4.90;;;14.50;99.90;;;;;;4983193;28;20061;-66
2023/06/28 03:47:34;;;;;;;10.07;4.90;;;14.50;99.90;;;;;;5016586;28;20529;-65
2023/06/28 03:50:00;;;;;;;9.27;4.57;;;14.50;99.90;;;;;;4999351;28;20084;-64
2023/06/28 03:52:25;;;;;;;9.70;5.18;;;14.50;99.90;;;;;;4999323;28;20082;-65
2023/06/28 03:54:52;;;;;;;11.63;5.07;;;14.50;99.90;;;;;;5016851;28;20042;-65
2023/06/28 03:57:20;;;;;;;11.57;4.90;;;14.60;99.90;;;;;;5016790;28;20054;-68
2023/06/28 03:59:46;;;;;;;11.05;5.47;;;14.60;99.90;;;;;;5016809;28;20046;-65
2023/06/28 04:02:12;;;;;;;11.63;5.30;;;14.60;99.90;;;;;;4982833;28;20092;-66
2023/06/28 04:04:38;;;;;;;7.90;4.03;;;14.60;99.90;;;;;;5016634;28;20172;-65
2023/06/28 04:07:04;;;;;;;10.23;4.60;;;14.60;99.90;;;;;;4983113;28;20046;-65
2023/06/28 04:09:30;;;;;;;10.07;4.65;;;14.60;99.90;;;;;;5016550;28;20042;-65
2023/06/28 04:11:55;;;;;;;11.95;4.75;;;14.60;99.90;;;;;;4999866;28;20049;-65
2023/06/28 04:14:25;;;;;;;9.98;4.65;;;14.60;99.90;;;;;;5016436;28;20047;-65
2023/06/28 04:16:51;;;;;;;9.88;4.45;;;14.70;99.90;;;;;;5016520;28;20049;-65
2023/06/28 04:19:17;;;;;;;11.25;5.10;;;14.70;99.90;;;;;;4998989;28;20054;-66
2023/06/28 04:21:43;;;;;;;11.00;4.75;;;14.70;99.90;;;;;;4998865;28;20045;-65
2023/06/28 04:24:09;;;;;;;8.98;4.32;;;14.60;99.90;;;;;;5015270;28;20049;-66
2023/06/28 04:26:35;;;;;;;9.98;4.38;;;14.70;99.90;;;;;;4998850;28;20493;-66
2023/06/28 04:29:00;;;;;;;9.82;4.03;;;14.70;99.90;;;;;;5016138;28;20046;-65
2023/06/28 04:31:27;;;;;;;10.93;4.68;;;14.70;99.90;;;;;;4998859;28;20096;-67
2023/06/28 04:33:55;;;;;;;9.98;4.47;;;14.70;99.90;;;;;;4998684;28;20104;-66
2023/06/28 04:36:22;;;;;;;11.55;4.15;;;14.70;99.90;;;;;;4982667;28;20046;-66
2023/06/28 04:38:52;;;;;;;11.43;4.43;;;14.70;99.90;;;;;;4999054;28;20049;-66
2023/06/28 04:41:19;;;;;;;10.95;4.60;;;14.70;99.90;;;;;;5016512;28;20070;-66
2023/06/28 04:43:45;;;;;;;10.27;4.43;;;14.70;99.90;;;;;;5015900;28;20132;-66
2023/06/28 04:46:12;;;;;;;10.37;4.57;;;14.70;99.90;;;;;;4982466;28;20482;-66
2023/06/28 04:48:40;;;;;;;13.63;3.90;;;14.70;99.90;;;;;;5015798;28;20049;-66
2023/06/28 04:51:05;;;;;;;9.75;4.30;;;14.70;99.90;;;;;;5016292;28;20057;-66
2023/06/28 04:53:31;;;;;;;8.30;4.13;;;14.80;99.90;;;;;;5015727;28;20045;-66
2023/06/28 04:56:00;;;;;;;12.10;3.97;;;14.80;99.90;;;;;;4982504;28;20050;-66
2023/06/28 04:58:26;;;;;;;8.13;3.50;;;14.80;99.90;;;;;;5015636;28;20139;-69
2023/06/28 05:00:52;;;;;;;11.85;3.75;;;14.80;99.90;;;;;;4998796;28;20050;-66
2023/06/28 05:03:17;;;;;;;9.63;3.65;;;14.90;99.90;;;;;;5015730;28;20481;-65
2023/06/28 05:05:43;;;;;;;6.32;3.30;;;15.00;99.90;;;;;;4998183;28;20046;-67
2023/06/28 05:08:09;;;;;;;7.65;2.83;;;15.00;99.90;;;;;;5015581;28;20390;-66
2023/06/28 05:10:36;;;;;;;8.93;3.22;;;15.10;99.90;;;;;;5016191;28;20042;-66
2023/06/28 05:13:02;;;;;;;8.95;2.80;;;15.20;99.90;;;;;;4998173;28;20048;-69
2023/06/28 05:15:32;;;;;;;9.67;3.33;;;15.30;99.90;;;;;;5015216;28;20133;-68
2023/06/28 05:17:58;;;;;;;8.15;3.15;;;15.30;99.90;;;;;;5015676;28;20328;-66
2023/06/28 05:20:24;;;;;;;7.30;3.30;;;15.40;99.90;;;;;;4982033;28;20046;-66
2023/06/28 05:23:11;;;;;;;6.60;3.03;;;15.50;99.90;;;;;;5015014;28;20052;-65
2023/06/28 05:25:38;;;;;;;7.20;3.10;;;15.60;99.90;;;;;;5016000;28;20121;-66
2023/06/28 05:28:04;;;;;;;;;;;15.70;99.90;;;;;;5015535;28;20082;-65
2023/06/28 05:30:30;;;;;;;5.47;2.20;;;15.70;99.90;;;;;;4982086;28;19965;-66
2023/06/28 05:32:56;;;;;;;8.75;2.55;;;15.80;99.90;;;;;;5014753;28;20085;-66
2023/06/28 05:35:21;;;;;;;8.85;3.20;;;15.80;99.90;;;;;;5014705;28;20073;-66
2023/06/28 05:37:47;;;;;;;8.50;2.50;;;15.80;99.90;;;;;;5014970;28;20052;-65
2023/06/28 05:40:13;;;;;;;7.65;2.38;;;15.80;99.90;;;;;;4981430;28;20061;-65
2023/06/28 05:42:38;;;;;;;6.63;2.38;;;15.80;99.90;;;;;;4997419;28;20061;-66
2023/06/28 05:45:05;;;;;;;7.40;2.33;;;15.80;99.90;;;;;;4997514;28;20065;-65
2023/06/28 05:47:31;;;;;;;5.68;1.95;;;15.80;99.90;;;;;;4997596;28;20129;-65
2023/06/28 05:49:57;;;;;;;7.05;2.40;;;15.90;99.90;;;;;;4981574;28;20557;-65
2023/06/28 05:52:22;;;;;;;8.45;2.70;;;15.90;99.90;;;;;;4998121;28;20072;-65
2023/06/28 05:54:48;;;;;;;7.20;2.72;;;16.00;99.90;;;;;;5014654;28;20402;-65
2023/06/28 05:57:14;;;;;;;4.70;2.33;;;15.90;99.90;;;;;;5014764;28;20045;-65
2023/06/28 05:59:40;;;;;;;4.80;2.53;;;16.00;99.90;;;;;;5014626;28;20049;-65
2023/06/28 06:02:06;;;;;;;6.88;2.47;;;16.00;99.90;;;;;;4997147;28;20553;-65
2023/06/28 06:04:32;;;;;;;6.18;2.90;;;16.00;99.90;;;;;;4997499;28;20085;-65
2023/06/28 06:06:57;;;;;;;8.98;3.05;;;16.00;99.90;;;;;;5014438;28;20087;-65
2023/06/28 06:09:23;;;;;;;8.40;3.22;;;16.00;99.90;;;;;;4965786;28;20103;-65
2023/06/28 06:11:49;;;;;;;9.40;3.75;;;16.00;99.90;;;;;;4997464;28;20463;-65
2023/06/28 06:14:15;;;;;;;10.10;3.17;;;15.90;99.90;;;;;;5014884;28;20050;-65
2023/06/28 06:16:41;;;;;;;10.75;4.03;;;15.80;99.90;;;;;;5014844;28;20057;-66
2023/06/28 06:19:07;;;;;;;9.93;3.78;;;15.80;99.90;;;;;;4997704;28;20410;-67
2023/06/28 06:21:32;;;;;;;11.85;4.13;;;15.80;99.90;;;;;;5014428;28;20188;-66
2023/06/28 06:23:59;;;;;;;10.23;4.22;;;15.80;99.90;;;;;;5014004;28;20050;-66
2023/06/28 06:26:27;;;;;;;12.30;4.28;;;15.90;99.90;;;;;;5014605;28;20096;-66
2023/06/28 06:28:53;;;;;;;10.02;4.72;;;15.90;99.90;;;;;;5013979;28;20057;-66
2023/06/28 06:31:19;;;;;;;14.10;4.90;;;16.00;99.90;;;;;;4996514;28;20052;-65
2023/06/28 06:33:44;;;;;;;14.10;4.93;;;16.00;99.90;;;;;;5014004;28;20472;-66
2023/06/28 06:36:10;;;;;;;10.57;4.88;;;16.00;99.90;;;;;;4996517;28;20057;-66
2023/06/28 06:38:37;;;;;;;10.82;4.70;;;16.10;99.90;;;;;;4996414;28;20050;-65
2023/06/28 06:41:03;;;;;;;13.52;5.35;;;16.20;99.90;;;;;;4997402;28;20111;-66
2023/06/28 06:43:29;;;;;;;11.23;5.13;;;16.30;99.90;;;;;;5013881;28;20050;-66
2023/06/28 06:45:54;;;;;;;13.07;5.63;;;16.40;99.90;;;;;;4995991;28;20053;-65
2023/06/28 06:48:20;;;;;;;13.48;5.13;;;16.60;99.90;;;;;;4996053;28;20077;-66
2023/06/28 06:50:46;;;;;;;13.43;5.30;;;16.70;99.90;;;;;;5013364;28;20042;-66
2023/06/28 06:53:12;;;;;;;9.13;5.27;;;16.80;99.90;;;;;;5014040;28;20050;-65
2023/06/28 06:55:37;;;;;;;11.80;5.20;;;16.90;99.90;;;;;;4996325;28;20053;-65
2023/06/28 06:58:03;;;;;;;12.88;5.80;;;16.90;99.90;;;;;;5013702;28;20133;-65
2023/06/28 07:00:29;;;;;;;11.50;5.22;;;16.90;99.90;;;;;;5013679;28;20046;-66
2023/06/28 07:02:55;;;;;;;9.50;4.93;;;16.90;99.90;;;;;;5013008;28;20049;-65
2023/06/28 07:05:21;;;;;;;10.83;4.80;;;17.00;99.90;;;;;;4995750;28;20050;-66
2023/06/28 07:07:46;;;;;;;9.35;4.57;;;17.00;99.90;;;;;;4996004;28;20060;-65
2023/06/28 07:10:12;;;;;;;10.60;4.78;;;17.10;99.90;;;;;;5013552;28;20045;-67
2023/06/28 07:12:38;;;;;;;10.15;4.75;;;17.10;99.90;;;;;;4996042;28;20038;-66
2023/06/28 07:15:04;;;;;;;11.95;4.38;;;16.90;99.90;;;;;;5014000;28;20053;-66
2023/06/28 07:17:30;;;;;;;8.93;3.78;;;16.90;99.90;;;;;;4979875;28;20050;-67
2023/06/28 07:19:56;;;;;;;10.85;4.15;;;16.90;99.90;;;;;;4980928;28;20054;-65
2023/06/28 07:22:22;;;;;;;11.70;4.40;;;16.90;99.90;;;;;;4996133;28;20054;-65
2023/06/28 07:24:48;;;;;;;9.90;4.20;;;16.80;99.90;;;;;;5013418;28;20042;-65
2023/06/28 07:27:14;;;;;;;8.80;4.37;;;16.80;99.90;;;;;;4979922;28;20439;-66
2023/06/28 07:29:39;;;;;;;10.68;4.70;;;16.80;99.90;;;;;;4995921;28;20168;-65
2023/06/28 07:32:05;;;;;;;10.23;4.18;;;16.80;99.90;;;;;;5013255;28;20046;-65
2023/06/28 07:34:31;;;;;;;10.50;4.33;;;16.70;99.90;;;;;;4995876;28;20046;-66
2023/06/28 07:36:57;;;;;;;10.10;4.37;;;16.70;99.90;;;;;;4995810;28;20056;-65
2023/06/28 07:39:23;;;;;;;12.50;4.47;;;16.80;99.90;;;;;;4995950;28;20057;-66
2023/06/28 07:41:48;;;;;;;12.52;4.65;;;16.80;99.90;;;;;;5013715;28;20046;-68
2023/06/28 07:44:14;;;;;;;9.18;4.22;;;16.80;99.90;;;;;;4996237;28;20049;-66
2023/06/28 07:46:40;;;;;;;12.23;4.30;;;16.70;99.90;;;;;;4995591;28;20176;-65
2023/06/28 07:49:05;;;;;;;8.30;3.70;;;16.70;99.90;;;;;;4979485;28;20053;-66
2023/06/28 07:51:31;;;;;;;11.43;4.30;;;16.60;99.90;;;;;;5012978;28;20050;-66
2023/06/28 07:53:57;;;;;;;9.57;5.07;;;16.60;99.90;;;;;;4995732;28;20057;-66
2023/06/28 07:56:22;;;;;;;12.77;4.90;;;16.50;99.90;;;;;;5013247;28;20184;-66
2023/06/28 07:58:48;;;;;;;7.27;3.90;;;16.50;99.90;;;;;;4997882;28;20057;-68
2023/06/28 08:01:15;;;;;;;8.95;3.85;;;16.60;99.90;;;;;;5017048;28;20046;-67
2023/06/28 08:03:40;;;;;;;13.50;4.80;;;16.60;99.90;;;;;;4982284;28;20497;-67
2023/06/28 08:06:06;;;;;;;10.90;4.30;;;16.60;99.90;;;;;;4999324;28;20073;-67
2023/06/28 08:08:32;;;;;;;11.57;4.40;;;16.70;99.90;;;;;;5016573;28;20489;-67
2023/06/28 08:10:58;;;;;;;13.13;4.82;;;16.80;99.90;;;;;;5016541;28;20374;-66
2023/06/28 08:13:23;;;;;;;10.90;4.32;;;16.90;99.90;;;;;;4998794;28;20041;-65
2023/06/28 08:15:49;;;;;;;9.75;4.30;;;17.00;99.90;;;;;;4998845;28;20050;-67
2023/06/28 08:18:17;;;;;;;10.30;4.23;;;17.20;99.90;;;;;;4998925;28;20046;-67
2023/06/28 08:20:47;;;;;;;11.63;4.20;;;17.30;99.90;;;;;;4999071;28;20088;-66
2023/06/28 08:23:13;;;;;;;11.68;4.47;;;17.40;99.90;;;;;;4999793;28;20053;-66
2023/06/28 08:25:39;;;;;;;11.77;4.55;;;17.40;99.90;;;;;;4983001;28;20469;-67
2023/06/28 08:28:05;;;;;;;13.93;4.53;;;17.60;99.90;;;;;;4998846;28;20046;-67
2023/06/28 08:30:31;;;;;;;11.32;5.10;;;17.60;99.90;;;;;;4998766;28;20375;-68
2023/06/28 08:32:58;;;;;;;11.60;5.20;;;17.40;99.90;;;;;;5015754;28;20091;-65
2023/06/28 08:35:23;;;;;;;11.68;5.30;;;17.40;99.90;;;;;;4998621;28;20057;-65
2023/06/28 08:37:49;;;;;;;10.00;5.57;;;17.50;99.90;;;;;;4998516;28;20046;-66
2023/06/28 08:40:15;;;;;;;11.73;4.83;;;17.60;99.90;;;;;;4998947;28;20046;-67
2023/06/28 08:42:45;;;;;;;11.85;5.85;;;17.70;99.90;;;;;;5016749;28;20463;-67
2023/06/28 08:45:13;;;;;;;13.80;5.53;;;17.80;99.90;;;;;;4998363;28;20153;-67
2023/06/28 08:47:41;;;;;;;13.57;5.72;;;17.80;99.90;;;;;;5015818;28;20041;-67
2023/06/28 08:50:08;;;;;;;10.05;5.60;;;17.80;99.90;;;;;;5015762;28;20053;-67
2023/06/28 08:52:35;;;;;;;13.60;6.25;;;18.00;99.90;;;;;;4998494;28;20041;-66
2023/06/28 08:55:03;;;;;;;12.00;6.15;;;18.00;99.90;;;;;;5015626;28;20049;-67
2023/06/28 08:57:30;;;;;;;13.23;6.63;;;18.10;99.90;;;;;;4981862;28;20085;-67
2023/06/28 08:59:56;;;;;;;12.93;5.78;;;18.10;99.90;;;;;;5015488;28;20046;-69
2023/06/28 09:02:23;;;;;;;13.53;6.40;;;18.20;99.90;;;;;;5015023;28;20061;-65
2023/06/28 09:04:49;;;;;;;16.23;6.97;;;18.10;99.90;;;;;;5016125;28;20100;-66
2023/06/28 09:07:15;;;;;;;;;;;17.90;99.90;;;;;;4998543;28;20086;-65
2023/06/28 09:09:46;;;;;;;14.73;7.10;;;17.90;99.90;;;;;;4997377;28;19971;-67
2023/06/28 09:12:12;;;;;;;14.02;6.53;;;17.90;99.90;;;;;;4997788;28;20300;-67
2023/06/28 09:14:39;;;;;;;16.65;7.82;;;18.00;99.90;;;;;;4981938;28;20058;-66
2023/06/28 09:17:05;;;;;;;15.07;6.93;;;17.90;99.90;;;;;;5015285;28;20153;-67
2023/06/28 09:19:30;;;;;;;15.77;7.70;;;17.80;99.90;;;;;;4997820;28;20066;-66
2023/06/28 09:22:03;;;;;;;18.30;7.53;;;17.90;99.90;;;;;;4997791;28;20053;-66
2023/06/28 09:24:33;;;;;;;16.02;7.40;;;17.90;99.90;;;;;;4997469;28;20136;-66
2023/06/28 09:27:03;;;;;;;18.83;7.60;;;17.90;99.90;;;;;;4998466;28;20152;-68
2023/06/28 09:29:29;;;;;;;14.75;7.70;;;17.90;99.90;;;;;;5015334;28;20058;-65
2023/06/28 09:31:55;;;;;;;18.87;7.57;;;17.90;99.90;;;;;;4997679;28;20402;-66
2023/06/28 09:34:25;;;;;;;17.38;7.47;;;18.00;99.90;;;;;;5014896;28;20085;-67
2023/06/28 09:36:52;;;;;;;15.25;8.25;;;18.00;99.90;;;;;;5014833;28;20124;-65
2023/06/28 09:39:20;;;;;;;21.60;8.93;;;18.10;99.90;;;;;;4997210;28;20045;-66
2023/06/28 09:41:46;;;;;;;16.35;8.07;;;18.10;99.90;;;;;;4997368;28;20049;-66
2023/06/28 09:44:11;;;;;;;19.13;8.20;;;18.10;99.90;;;;;;4981149;28;20065;-66
2023/06/28 09:46:45;;;;;;;15.83;8.07;;;18.20;99.90;;;;;;5014654;28;20124;-67
2023/06/28 09:49:21;;;;;;;16.15;8.13;;;18.20;99.90;;;;;;5014605;28;20050;-66
2023/06/28 09:52:03;;;;;;;17.00;9.00;;;18.20;99.90;;;;;;4997235;28;20049;-67
2023/06/28 09:54:34;;;;;;;18.85;8.07;;;18.10;99.90;;;;;;4997564;28;20041;-66
2023/06/28 09:57:01;;;;;;;17.15;8.70;;;18.20;99.90;;;;;;4997341;28;20042;-66
2023/06/28 09:59:30;;;;;;;19.77;8.93;;;18.10;99.90;;;;;;5014419;28;20060;-66
2023/06/28 10:01:58;;;;;;;16.13;8.40;;;18.10;99.90;;;;;;4996860;28;20056;-66
2023/06/28 10:04:30;;;;;;;16.77;8.27;;;18.10;99.90;;;;;;4996541;28;20485;-65
2023/06/28 10:06:59;;;;;;;14.88;8.18;;;18.10;99.90;;;;;;4997413;28;20054;-66
2023/06/28 10:09:28;;;;;;;16.65;8.05;;;18.10;99.90;;;;;;4996525;28;20034;-65
2023/06/28 10:11:56;;;;;;;16.55;8.05;;;18.20;99.90;;;;;;5014659;28;20473;-65
2023/06/28 10:14:22;;;;;;;14.82;8.50;;;18.20;99.90;;;;;;5014187;28;20133;-66
2023/06/28 10:16:53;;;;;;;;;;;18.20;99.90;;;;;;4997412;28;20414;-66
2023/06/28 10:19:19;;;;;;;19.63;8.50;;;18.20;99.90;;;;;;4996844;28;20357;-66
2023/06/28 10:21:45;;;;;;;13.95;8.52;;;18.20;99.90;;;;;;5013648;28;20567;-66
2023/06/28 10:24:11;;;;;;;15.40;8.63;;;18.20;99.90;;;;;;4980382;28;20038;-66
2023/06/28 10:26:36;;;;;;;16.60;8.90;;;18.10;99.90;;;;;;4996446;28;20056;-66
2023/06/28 10:29:03;;;;;;;15.80;8.97;;;18.20;99.90;;;;;;4996558;28;20042;-65
2023/06/28 10:31:29;;;;;;;;;;;18.20;99.90;;;;;;5014221;28;20115;-66
2023/06/28 10:33:57;;;;;;;16.57;8.23;;;18.30;99.90;;;;;;5014451;28;19921;-65
2023/06/28 10:36:26;;;;;;;14.13;8.57;;;18.50;99.90;;;;;;5013732;28;20478;-66
2023/06/28 10:38:52;;;;;;;14.63;8.02;;;18.60;99.90;;;;;;4996728;28;20061;-66
2023/06/28 10:41:19;;;;;;;16.63;8.57;;;18.60;99.90;;;;;;4980170;28;20057;-66
2023/06/28 10:43:45;;;;;;;15.52;8.52;;;18.60;99.90;;;;;;4980603;28;20061;-66
2023/06/28 10:46:22;;;;;;;13.57;8.10;;;18.60;99.90;;;;;;4980083;28;20410;-68
2023/06/28 10:48:51;;;;;;;12.10;7.90;;;18.70;99.90;;;;;;5013662;28;20293;-66
2023/06/28 10:51:23;;;;;;;12.32;7.88;;;18.60;99.90;;;;;;5013627;28;20041;-66
2023/06/28 10:53:55;;;;;;;11.70;7.05;;;18.60;99.90;;;;;;5014189;28;20183;-65
2023/06/28 10:56:21;;;;;;;11.48;7.78;;;18.60;99.90;;;;;;4979995;28;20046;-65
2023/06/28 10:58:53;;;;;;;15.15;8.85;;;18.60;99.90;;;;;;4996050;28;20086;-65
2023/06/28 11:01:49;;;;;;;13.60;8.30;;;18.60;99.90;;;;;;5014109;28;20050;-65
2023/06/28 11:04:22;;;;;;;12.77;8.27;;;18.60;99.90;;;;;;4989643;28;20062;-66
2023/06/28 11:07:09;;;;;;;15.00;7.90;;;18.60;99.90;;;;;;4996206;28;20097;-65
2023/06/28 11:09:35;;;;;;;18.48;8.57;;;18.70;99.90;;;;;;4995249;28;20053;-66
2023/06/28 11:12:03;;;;;;;14.35;8.57;;;18.80;99.90;;;;;;4964058;28;20095;-65
2023/06/28 11:14:32;;;;;;;16.15;9.13;;;18.90;99.90;;;;;;5013745;28;20493;-65
2023/06/28 11:17:03;;;;;;;14.40;8.93;;;18.80;99.90;;;;;;4996086;28;20057;-65
2023/06/28 11:19:29;;;;;;;17.45;9.70;;;18.80;99.90;;;;;;5013099;28;20497;-67
2023/06/28 11:22:04;;;;;;;13.75;9.07;;;18.90;99.90;;;;;;5013563;28;20410;-65
2023/06/28 11:24:33;;;;;;;15.30;8.82;;;18.90;99.90;;;;;;4980183;28;20054;-65
2023/06/28 11:27:00;;;;;;;14.82;9.68;;;18.90;99.90;;;;;;4996145;28;20052;-64
2023/06/28 11:29:26;;;;;;;16.95;10.50;;;18.90;99.90;;;;;;4979865;28;20109;-64
2023/06/28 11:31:56;;;;;;;19.23;10.57;;;18.90;99.90;;;;;;5013410;28;20101;-65
2023/06/28 11:34:23;;;;;;;16.90;10.25;;;18.80;99.90;;;;;;5017045;28;20045;-65
2023/06/28 11:36:49;;;;;;;;;;;18.90;99.90;;;;;;5017674;28;20058;-64
2023/06/28 11:39:16;;;;;;;16.70;9.65;;;18.90;99.90;;;;;;5017271;28;19947;-70
2023/06/28 11:41:45;;;;;;;16.83;9.15;;;19.00;99.90;;;;;;4983711;28;20054;-65
2023/06/28 11:44:13;;;;;;;18.88;11.13;;;19.10;99.90;;;;;;5016843;28;20517;-65
2023/06/28 11:46:40;;;;;;;20.45;10.88;;;19.20;99.90;;;;;;4999550;28;20037;-65
2023/06/28 11:49:07;;;;;;;17.17;11.80;;;19.20;99.90;;;;;;5016822;28;20046;-65
2023/06/28 11:51:34;;;;;;;18.58;11.45;;;19.30;99.90;;;;;;5016808;28;20077;-65
2023/06/28 11:53:59;;;;;;;17.75;10.57;;;19.30;99.90;;;;;;5016449;28;20091;-66
2023/06/28 11:56:39;;;;;;;18.97;11.53;;;19.30;99.90;;;;;;5016523;28;20129;-64
2023/06/28 11:59:15;;;;;;;19.88;11.55;;;19.20;99.90;;;;;;5017305;28;20054;-65
2023/06/28 12:01:42;;;;;;;20.33;11.90;;;19.00;99.90;;;;;;4999757;28;20125;-65
2023/06/28 12:04:17;;;;;;;20.08;12.25;;;18.90;99.90;;;;;;5017176;28;20058;-65
2023/06/28 12:06:43;;;;;;;22.98;12.45;;;18.90;99.90;;;;;;4999066;28;20157;-65
2023/06/28 12:09:22;;;;;;;21.85;11.80;;;18.90;99.90;;;;;;5016649;28;20394;-66
2023/06/28 12:12:04;;;;;;;16.17;10.90;;;19.10;99.90;;;;;;4999069;28;20053;-65
2023/06/28 12:14:37;;;;;;;19.92;12.35;;;19.30;99.90;;;;;;4999210;28;20050;-66
2023/06/28 12:17:03;;;;;;;19.50;11.77;;;19.30;99.90;;;;;;5016585;28;20050;-65
2023/06/28 12:19:33;;;;;;;22.77;11.73;;;19.60;99.90;;;;;;5016430;28;20108;-66
2023/06/28 12:22:04;;;;;;;20.42;12.13;;;19.60;99.90;;;;;;4982885;28;20054;-66
2023/06/28 12:24:31;;;;;;;23.17;11.60;;;19.70;99.90;;;;;;5016383;28;20041;-65
2023/06/28 12:26:58;;;;;;;24.65;12.02;;;19.80;99.90;;;;;;4998807;28;20053;-65
2023/06/28 12:29:26;;;;;;;23.80;12.60;;;19.70;99.90;;;;;;4998730;28;20060;-66
2023/06/28 12:31:53;;;;;;;23.27;12.65;;;20.00;99.90;;;;;;5016147;28;20077;-64
2023/06/28 12:34:27;;;;;;;24.17;12.15;;;20.10;99.90;;;;;;5016167;28;20054;-63
2023/06/28 12:36:55;;;;;;;25.10;12.65;;;20.40;99.90;;;;;;4999153;28;20133;-65
2023/06/28 12:39:28;;;;;;;22.77;12.10;;;20.60;99.90;;;;;;4998612;28;20108;-64